< Cyclone 196101 1961 Season Cyclone 196103 >
Cyclone 196102 (unnamed)
General InformationTrack Information on Google Maps || ResourceGoogle EarthGE AnimationAtom FeedGeoJSON
Detalied Best Track (Time Zone = UTC)
Year Month Day Hour Lat. Long. Pressure (hPa) Wind (kt) Class Image Chart
1960 12 29 01 -6.9 96.0 1000 0 0 -- --
1960 12 29 04 -7.2 95.8 1000 0 0 -- --
1960 12 29 07 -7.5 95.5 1000 0 0 -- --
1960 12 29 10 -7.9 95.2 1000 0 0 -- --
1960 12 29 16 -8.7 94.7 1000 0 0 -- --
1960 12 29 19 -9.1 94.5 1000 0 0 -- --
1960 12 29 22 -9.5 94.2 1000 0 0 -- --
1960 12 30 01 -9.9 94.0 1000 0 0 -- --
1960 12 30 04 -10.1 94.0 1000 0 0 -- --
1960 12 30 07 -10.4 94.0 1000 0 0 -- --
1960 12 30 10 -10.6 94.0 1000 0 0 -- --
1960 12 30 16 -11.1 94.0 1000 0 0 -- --
1960 12 30 19 -11.4 94.0 1000 0 0 -- --
1960 12 30 22 -11.7 94.0 1000 0 0 -- --
1960 12 31 01 -11.9 94.0 1000 0 0 -- --
1960 12 31 04 -12.0 94.1 1000 0 0 -- --
1960 12 31 07 -12.2 94.3 1000 0 0 -- --
1960 12 31 10 -12.3 94.4 1000 0 0 -- --
1960 12 31 19 -12.7 94.8 1000 0 0 -- --
1960 12 31 22 -12.8 94.9 1000 0 0 -- --
1961 1 1 01 -12.9 95.0 1000 0 0 -- --
1961 1 1 04 -13.1 95.1 1000 0 0 -- --
1961 1 1 07 -13.4 95.3 1000 0 0 -- --
1961 1 1 10 -13.6 95.4 1000 0 0 -- --
1961 1 1 22 -14.7 95.9 1000 0 0 -- --
1961 1 2 01 -14.9 96.0 1000 0 0 -- --
1961 1 2 04 -15.1 96.2 1000 0 0 -- --
1961 1 2 07 -15.4 96.5 1000 0 0 -- --
1961 1 2 10 -15.6 96.7 1000 0 0 -- --
1961 1 2 16 -16.1 97.2 1000 0 0 -- --
1961 1 2 19 -16.4 97.5 1000 0 0 -- --
1961 1 2 22 -16.7 97.8 1000 0 0 -- --
1961 1 3 01 -16.9 98.0 1000 0 0 -- --
< Cyclone 196101 1961 Season Cyclone 196103 >

Help